Time;durP1;ratioP1;P1;durP2;ratioP2;P2;SDS_P1;SDS_P2;PMS_P1;PMS_P2;Temp;Humidity;BMP_temperature;BMP_pressure;BME280_temperature;BME280_humidity;BME280_pressure;Samples;Min_cycle;Max_cycle;Signal;HPM_P1;HPM_P2
2023/03/15 00:01:33;;;;;;;4.53;2.27;;;;;;;5.58;57.91;99668.64;1745697;82;21017;-61
2023/03/15 00:04:04;;;;;;;4.83;2.70;;;;;;;5.54;58.12;99665.96;1748256;82;21032;-61
2023/03/15 00:06:36;;;;;;;6.47;2.60;;;;;;;5.49;58.36;99664.30;1749051;82;21005;-61
2023/03/15 00:09:04;;;;;;;6.05;2.50;;;;;;;5.47;58.71;99666.36;1748425;82;21008;-60
2023/03/15 00:11:35;;;;;;;4.35;2.50;;;;;;;5.44;59.11;99667.57;1748251;82;21647;-61
2023/03/15 00:14:04;;;;;;;4.78;2.37;;;;;;;5.40;59.29;99655.38;1746664;82;21276;-60
2023/03/15 00:16:35;;;;;;;3.83;2.37;;;;;;;5.38;59.63;99657.44;1745541;82;21095;-61
2023/03/15 00:19:05;;;;;;;5.17;2.67;;;;;;;5.38;60.00;99661.00;1724523;82;21123;-62
2023/03/15 00:21:35;;;;;;;5.37;2.92;;;;;;;5.35;60.32;99664.59;1745571;82;21052;-61
2023/03/15 00:24:06;;;;;;;5.90;2.67;;;;;;;5.32;60.42;99656.30;1745535;82;21433;-61
2023/03/15 00:26:35;;;;;;;6.50;2.75;;;;;;;5.32;60.58;99656.81;1745575;82;21056;-62
2023/03/15 00:29:04;;;;;;;6.83;2.60;;;;;;;5.31;60.72;99649.69;1745604;82;21056;-62
2023/03/15 00:31:34;;;;;;;5.70;2.35;;;;;;;5.31;60.94;99649.69;1745360;82;21032;-60
2023/03/15 00:34:03;;;;;;;6.85;3.22;;;;;;;5.29;61.32;99650.39;1745306;82;21080;-60
2023/03/15 00:36:32;;;;;;;4.30;2.17;;;;;;;5.25;61.68;99649.06;1745432;82;21044;-61
2023/03/15 00:39:03;;;;;;;4.22;2.65;;;;;;;5.21;61.91;99653.17;1745438;82;21017;-60
2023/03/15 00:41:32;;;;;;;3.47;1.92;;;;;;;5.18;62.13;99654.34;1745266;82;21409;-61
2023/03/15 00:44:05;;;;;;;5.22;2.77;;;;;;;5.17;62.20;99649.94;1745601;82;21017;-61
2023/03/15 00:46:35;;;;;;;4.35;2.20;;;;;;;5.15;62.58;99646.55;1745637;82;21441;-60
2023/03/15 00:49:04;;;;;;;4.60;2.37;;;;;;;5.13;62.69;99645.05;1745584;82;21099;-61
2023/03/15 00:51:36;;;;;;;6.53;2.17;;;;;;;5.12;62.85;99646.92;1745401;82;21127;-61
2023/03/15 00:54:05;;;;;;;5.37;2.35;;;;;;;5.12;63.06;99650.15;1745486;82;21044;-60
2023/03/15 00:56:35;;;;;;;5.45;2.50;;;;;;;5.09;63.27;99642.70;1745348;82;21074;-60
2023/03/15 00:59:04;;;;;;;3.27;2.12;;;;;;;5.09;63.32;99656.27;1748781;82;21053;-61
2023/03/15 01:01:34;;;;;;;5.50;2.40;;;;;;;5.05;63.76;99652.74;1745663;82;21044;-61
2023/03/15 01:04:13;;;;;;;5.53;2.47;;;;;;;5.03;63.80;99657.51;1724996;82;21084;-62
2023/03/15 01:06:42;;;;;;;7.00;2.52;;;;;;;5.01;63.97;99653.61;1745246;82;21040;-61
2023/03/15 01:09:11;;;;;;;5.80;2.50;;;;;;;5.00;64.05;99648.37;1745594;82;21041;-60
2023/03/15 01:11:40;;;;;;;5.37;2.50;;;;;;;4.98;64.24;99653.13;1745314;82;21513;-61
2023/03/15 01:14:12;;;;;;;6.47;2.58;;;;;;;4.95;64.44;99648.06;1745437;82;21494;-62
2023/03/15 01:16:41;;;;;;;6.37;2.95;;;;;;;4.92;64.50;99647.06;1745489;82;21013;-61
2023/03/15 01:19:12;;;;;;;5.42;2.70;;;;;;;4.92;64.53;99651.98;1745388;82;21452;-60
2023/03/15 01:21:41;;;;;;;6.53;2.85;;;;;;;4.92;64.72;99657.92;1745422;82;21024;-59
2023/03/15 01:24:13;;;;;;;4.95;2.67;;;;;;;4.89;64.95;99653.70;1745348;82;21104;-60
2023/03/15 01:26:44;;;;;;;7.83;2.85;;;;;;;4.85;65.08;99654.23;1745230;82;21032;-63
2023/03/15 01:29:14;;;;;;;4.10;2.50;;;;;;;4.83;65.26;99655.77;1745495;82;21443;-61
2023/03/15 01:31:44;;;;;;;6.17;2.80;;;;;;;4.81;65.47;99650.19;1750556;81;21091;-59
2023/03/15 01:34:13;;;;;;;5.80;2.60;;;;;;;4.81;65.63;99659.69;1753515;82;21013;-60
2023/03/15 01:36:42;;;;;;;4.65;2.95;;;;;;;4.77;65.75;99655.98;1753800;81;21044;-60
2023/03/15 01:39:12;;;;;;;4.78;2.87;;;;;;;4.74;65.98;99648.19;1753850;81;21044;-61
2023/03/15 01:41:42;;;;;;;5.20;2.98;;;;;;;4.72;66.10;99650.23;1753971;82;21080;-61
2023/03/15 01:44:14;;;;;;;8.55;2.62;;;;;;;4.72;66.23;99652.11;1753611;82;21048;-62
2023/03/15 01:46:44;;;;;;;4.60;2.90;;;;;;;4.70;66.40;99652.80;1753384;81;21016;-60
2023/03/15 01:49:21;;;;;;;7.90;3.37;;;;;;;4.69;66.52;99649.24;1753411;81;21040;-62
2023/03/15 01:52:00;;;;;;;6.25;2.90;;;;;;;4.66;66.65;99654.18;1753607;81;21033;-61
2023/03/15 01:55:01;;;;;;;7.60;3.00;;;;;;;4.60;66.96;99639.97;1753669;82;21063;-61
2023/03/15 01:57:38;;;;;;;6.17;3.47;;;;;;;4.54;67.12;99648.28;1753551;81;21720;-61
2023/03/15 02:00:16;;;;;;;6.10;3.00;;;;;;;4.54;67.33;99655.06;1753657;81;21037;-60
2023/03/15 02:02:52;;;;;;;7.37;3.12;;;;;;;4.54;67.46;99653.70;1753014;82;21020;-60
2023/03/15 02:05:28;;;;;;;7.87;3.60;;;;;;;4.53;67.59;99656.08;1753467;82;21708;-62
2023/03/15 02:07:57;;;;;;;8.30;2.98;;;;;;;4.51;67.77;99656.77;1753518;82;21084;-61
2023/03/15 02:10:46;;;;;;;7.22;3.50;;;;;;;4.49;67.97;99657.45;1753753;81;21068;-61
2023/03/15 02:13:21;;;;;;;8.83;3.83;;;;;;;4.48;68.15;99667.13;1753493;82;21397;-61
2023/03/15 02:15:52;;;;;;;5.10;2.98;;;;;;;4.46;68.37;99659.16;1753574;81;21495;-61
2023/03/15 02:18:23;;;;;;;8.15;3.58;;;;;;;4.44;68.49;99653.08;1753407;82;21056;-62
2023/03/15 02:21:16;;;;;;;8.93;3.87;;;;;;;4.42;68.58;99650.54;1753739;82;21068;-61
2023/03/15 02:23:47;;;;;;;6.12;3.77;;;;;;;4.42;68.69;99643.76;1753620;81;21020;-60
2023/03/15 02:26:43;;;;;;;9.00;3.85;;;;;;;4.40;69.09;99651.73;1753634;82;21578;-60
2023/03/15 02:29:12;;;;;;;7.67;3.70;;;;;;;4.38;69.14;99651.06;1752745;82;21051;-62
2023/03/15 02:31:41;;;;;;;6.83;3.37;;;;;;;4.38;69.18;99648.36;1753166;82;21111;-61
2023/03/15 02:34:11;;;;;;;8.40;3.62;;;;;;;4.37;69.32;99643.95;1745606;82;21029;-60
2023/03/15 02:36:42;;;;;;;9.08;3.92;;;;;;;4.33;69.43;99642.11;1745575;82;21468;-60
2023/03/15 02:39:15;;;;;;;8.20;3.87;;;;;;;4.31;69.61;99650.93;1745367;82;21519;-62
2023/03/15 02:41:55;;;;;;;6.67;3.58;;;;;;;4.28;69.78;99636.88;1745436;82;21017;-60
2023/03/15 02:44:36;;;;;;;6.62;4.10;;;;;;;4.26;70.06;99631.62;1745406;82;21050;-61
2023/03/15 02:47:29;;;;;;;6.67;4.10;;;;;;;4.26;70.19;99635.70;1745616;82;21052;-60
2023/03/15 02:50:00;;;;;;;7.42;4.00;;;;;;;4.25;70.22;99639.43;1745401;82;21871;-60
2023/03/15 02:52:31;;;;;;;8.00;4.33;;;;;;;4.24;70.39;99632.31;1745421;82;21052;-60
2023/03/15 02:55:06;;;;;;;7.60;4.12;;;;;;;4.21;70.44;99634.53;1745481;82;20993;-60
2023/03/15 02:57:38;;;;;;;8.70;4.22;;;;;;;4.21;70.44;99630.47;1745350;82;21405;-61
2023/03/15 03:00:14;;;;;;;6.12;3.70;;;;;;;4.21;70.53;99626.41;1745653;82;21049;-61
2023/03/15 03:02:46;;;;;;;9.95;4.30;;;;;;;4.19;70.72;99621.66;1745253;82;21053;-61
2023/03/15 03:05:16;;;;;;;6.47;3.60;;;;;;;4.17;70.69;99619.64;1745787;82;21079;-61
2023/03/15 03:07:44;;;;;;;6.92;3.60;;;;;;;4.17;70.75;99619.13;1745497;82;21064;-61
2023/03/15 03:10:15;;;;;;;6.03;3.20;;;;;;;4.19;70.85;99617.59;1745529;82;21080;-62
2023/03/15 03:12:52;;;;;;;9.53;3.80;;;;;;;4.17;70.99;99608.80;1744736;82;21005;-61
2023/03/15 03:15:19;;;;;;;7.58;3.80;;;;;;;4.15;71.00;99618.46;1745724;82;21060;-62
2023/03/15 03:17:50;;;;;;;8.58;3.95;;;;;;;4.12;71.09;99623.73;1745698;82;21025;-61
2023/03/15 03:20:20;;;;;;;8.43;3.70;;;;;;;4.10;71.16;99626.27;1745501;82;21477;-62
2023/03/15 03:22:50;;;;;;;5.72;3.30;;;;;;;4.05;71.23;99620.02;1745593;82;21023;-61
2023/03/15 03:25:19;;;;;;;6.85;3.45;;;;;;;4.03;71.37;99615.80;1745714;82;21412;-61
2023/03/15 03:27:55;;;;;;;6.40;3.27;;;;;;;4.02;71.50;99612.24;1745408;82;21421;-61
2023/03/15 03:30:22;;;;;;;5.45;3.00;;;;;;;4.01;71.54;99606.48;1745483;82;21001;-61
2023/03/15 03:32:52;;;;;;;5.40;2.98;;;;;;;3.98;71.59;99614.97;1748676;82;21080;-61
2023/03/15 03:35:21;;;;;;;5.37;3.35;;;;;;;3.97;71.68;99615.98;1753432;82;21024;-61
2023/03/15 03:37:52;;;;;;;7.15;3.37;;;;;;;3.93;71.71;99616.00;1753583;82;21553;-60
2023/03/15 03:40:24;;;;;;;7.80;3.30;;;;;;;3.90;71.87;99616.83;1753154;82;21494;-61
2023/03/15 03:42:54;;;;;;;7.62;3.90;;;;;;;3.86;72.07;99620.39;1753504;82;21047;-59
2023/03/15 03:45:25;;;;;;;7.78;3.90;;;;;;;3.82;72.19;99631.24;1756214;81;21036;-61
2023/03/15 03:47:57;;;;;;;7.55;3.75;;;;;;;3.80;72.38;99634.13;1757569;82;21024;-60
2023/03/15 03:50:26;;;;;;;8.10;4.33;;;;;;;3.78;72.56;99626.68;1757047;82;21083;-61
2023/03/15 03:52:55;;;;;;;6.92;3.37;;;;;;;3.76;72.64;99630.08;1756357;81;21068;-61
2023/03/15 03:55:26;;;;;;;8.23;3.27;;;;;;;3.73;72.87;99630.42;1755330;82;21055;-61
2023/03/15 03:57:55;;;;;;;8.93;4.00;;;;;;;3.69;73.07;99632.30;1753507;82;21095;-60
2023/03/15 04:00:41;;;;;;;6.42;3.58;;;;;;;3.66;73.27;99630.77;1752240;82;21068;-62
2023/03/15 04:03:10;;;;;;;8.98;3.67;;;;;;;3.65;73.38;99633.66;1753625;82;21048;-61
2023/03/15 04:05:41;;;;;;;6.35;3.52;;;;;;;3.63;73.52;99634.34;1753334;82;21020;-59
2023/03/15 04:08:13;;;;;;;6.45;3.65;;;;;;;3.63;73.71;99628.92;1753871;82;21490;-61
2023/03/15 04:10:42;;;;;;;6.28;3.65;;;;;;;3.60;73.87;99622.49;1753336;82;21090;-62
2023/03/15 04:13:11;;;;;;;7.45;3.80;;;;;;;3.53;73.93;99626.91;1753583;82;21001;-62
2023/03/15 04:15:40;;;;;;;8.63;3.67;;;;;;;3.48;74.21;99630.97;1723962;82;21103;-60
2023/03/15 04:18:13;;;;;;;7.62;3.87;;;;;;;3.44;74.46;99622.86;1753401;82;21471;-59
2023/03/15 04:20:46;;;;;;;8.28;3.60;;;;;;;3.43;74.62;99626.58;1753459;81;21036;-60
2023/03/15 04:23:18;;;;;;;8.38;3.77;;;;;;;3.40;74.74;99616.09;1724980;82;21099;-62
2023/03/15 04:25:56;;;;;;;6.60;3.72;;;;;;;3.40;74.87;99621.50;1742991;82;21032;-61
2023/03/15 04:28:41;;;;;;;6.58;3.52;;;;;;;3.40;75.08;99628.27;1750481;82;21056;-60
2023/03/15 04:31:13;;;;;;;5.35;3.12;;;;;;;3.41;75.24;99634.03;1749212;82;21056;-61
2023/03/15 04:34:03;;;;;;;7.60;4.08;;;;;;;3.40;75.36;99630.14;1751284;81;21096;-61
2023/03/15 04:36:41;;;;;;;;;;;;;;;3.38;75.61;99631.66;1745834;82;21056;-62
2023/03/15 04:39:12;;;;;;;5.97;3.30;;;;;;;3.36;75.76;99635.05;1752790;82;20149;-60
2023/03/15 04:42:02;;;;;;;7.40;3.77;;;;;;;3.36;75.88;99632.84;1753607;82;21024;-61
2023/03/15 04:44:37;;;;;;;9.93;4.12;;;;;;;3.33;76.03;99636.74;1751789;82;21056;-62
2023/03/15 04:47:22;;;;;;;8.28;3.77;;;;;;;3.32;76.17;99644.52;1751517;82;21472;-60
2023/03/15 04:50:12;;;;;;;8.88;3.85;;;;;;;3.32;76.33;99654.00;1753501;82;21078;-61
2023/03/15 04:52:44;;;;;;;9.15;3.72;;;;;;;3.36;76.42;99647.23;1716075;82;21036;-60
2023/03/15 04:55:16;;;;;;;8.58;3.90;;;;;;;3.39;76.48;99641.98;1753291;82;21044;-61
2023/03/15 04:57:51;;;;;;;8.58;4.10;;;;;;;3.40;76.56;99640.97;1751501;82;21020;-61
2023/03/15 05:00:24;;;;;;;10.28;4.62;;;;;;;3.42;76.61;99644.35;1737958;82;21075;-61
2023/03/15 05:03:04;;;;;;;7.90;4.17;;;;;;;3.43;76.57;99644.69;1752858;82;21119;-62
2023/03/15 05:05:51;;;;;;;7.85;4.35;;;;;;;3.44;76.56;99648.58;1753630;82;21218;-61
2023/03/15 05:08:26;;;;;;;10.90;5.00;;;;;;;3.46;76.57;99655.18;1718661;82;21080;-63
2023/03/15 05:11:07;;;;;;;8.03;4.35;;;;;;;3.48;76.56;99660.77;1751446;82;21036;-59
2023/03/15 05:13:40;;;;;;;7.87;4.80;;;;;;;3.51;76.62;99655.52;1751564;82;21021;-62
2023/03/15 05:16:15;;;;;;;8.45;4.67;;;;;;;3.55;76.66;99658.22;1752071;82;21596;-62
2023/03/15 05:19:00;;;;;;;9.48;5.15;;;;;;;3.55;76.70;99657.37;1752770;82;21491;-61
2023/03/15 05:21:42;;;;;;;11.65;4.97;;;;;;;3.56;76.76;99661.27;1693857;82;21042;-62
2023/03/15 05:24:14;;;;;;;9.18;4.78;;;;;;;3.59;76.73;99662.78;1752118;82;21456;-61
2023/03/15 05:26:53;;;;;;;8.33;4.53;;;;;;;3.60;76.78;99673.45;1751308;82;21232;-61
2023/03/15 05:29:31;;;;;;;9.35;3.95;;;;;;;3.65;76.73;99671.58;1751208;82;21498;-61
2023/03/15 05:32:25;;;;;;;15.28;5.53;;;;;;;3.68;76.83;99678.00;1693258;83;21098;-62
2023/03/15 05:34:56;;;;;;;8.78;5.20;;;;;;;3.77;76.82;99682.39;1676358;85;21038;-60
2023/03/15 05:37:27;;;;;;;9.53;5.87;;;;;;;3.82;76.75;99685.44;1718493;82;21147;-61
2023/03/15 05:40:01;;;;;;;8.85;5.37;;;;;;;3.87;76.72;99681.70;1749626;82;21052;-64
2023/03/15 05:42:41;;;;;;;10.85;4.85;;;;;;;3.93;76.56;99675.63;1751910;82;21048;-62
2023/03/15 05:45:30;;;;;;;14.03;5.90;;;;;;;3.95;76.44;99669.52;1751456;82;21036;-62
2023/03/15 05:48:01;;;;;;;10.60;5.40;;;;;;;3.99;76.44;99677.64;1751289;82;21092;-62
2023/03/15 05:50:40;;;;;;;12.30;5.40;;;;;;;4.03;76.44;99672.20;1752242;82;21055;-60
2023/03/15 05:53:17;;;;;;;11.73;5.00;;;;;;;4.11;76.36;99681.67;1753327;82;21048;-63
2023/03/15 05:56:04;;;;;;;11.12;5.70;;;;;;;4.18;76.15;99671.48;1751557;82;21028;-62
2023/03/15 05:58:51;;;;;;;11.78;6.33;;;;;;;4.23;76.05;99668.58;1753294;82;21064;-62
2023/03/15 06:01:22;;;;;;;11.30;4.85;;;;;;;4.28;76.00;99658.57;1750169;82;21024;-61
2023/03/15 06:04:00;;;;;;;9.43;5.15;;;;;;;4.35;75.83;99664.98;1752720;82;21614;-62
2023/03/15 06:06:30;;;;;;;9.28;5.10;;;;;;;4.40;75.56;99665.30;1753389;82;21420;-62
2023/03/15 06:09:06;;;;;;;12.33;5.10;;;;;;;4.43;75.45;99664.44;1723527;82;21032;-63
2023/03/15 06:11:41;;;;;;;12.80;6.03;;;;;;;4.48;75.34;99667.97;1753265;82;21502;-64
2023/03/15 06:14:13;;;;;;;14.00;6.05;;;;;;;4.54;75.29;99665.06;1753375;81;21009;-61
2023/03/15 06:16:52;;;;;;;16.10;6.00;;;;;;;4.62;75.08;99657.76;1753214;82;21052;-62
2023/03/15 06:19:23;;;;;;;13.28;5.00;;;;;;;4.69;74.97;99657.37;1753465;82;21028;-62
2023/03/15 06:21:55;;;;;;;16.27;6.33;;;;;;;4.76;74.66;99665.66;1753283;82;21036;-62
2023/03/15 06:24:28;;;;;;;14.95;5.47;;;;;;;4.74;74.51;99661.77;1688664;84;21510;-61
2023/03/15 06:26:58;;;;;;;9.05;5.40;;;;;;;4.76;74.51;99671.92;1688250;85;21078;-62
2023/03/15 06:29:28;;;;;;;11.53;5.90;;;;;;;4.77;74.44;99668.70;1688938;84;21110;-61
2023/03/15 06:31:58;;;;;;;12.50;5.22;;;;;;;4.78;74.49;99668.52;1688742;85;21050;-62
2023/03/15 06:34:28;;;;;;;12.75;5.58;;;;;;;4.82;74.35;99664.09;1665267;85;21694;-62
2023/03/15 06:36:58;;;;;;;13.93;5.55;;;;;;;4.85;74.37;99670.02;1602341;88;21075;-63
2023/03/15 06:39:33;;;;;;;21.80;6.40;;;;;;;4.88;74.29;99663.38;1623631;87;21083;-62
2023/03/15 06:42:02;;;;;;;18.20;6.65;;;;;;;4.92;74.33;99659.28;1623519;88;21048;-61
2023/03/15 06:44:32;;;;;;;10.13;5.75;;;;;;;5.01;74.34;99660.91;1602153;88;21099;-61
2023/03/15 06:47:04;;;;;;;20.40;7.33;;;;;;;5.06;74.13;99659.34;1623529;88;21102;-63
2023/03/15 06:49:34;;;;;;;13.55;6.10;;;;;;;5.12;73.89;99656.42;1663881;85;21016;-62
2023/03/15 06:52:05;;;;;;;13.98;6.45;;;;;;;5.17;73.61;99645.86;1681119;85;21131;-62
2023/03/15 06:54:34;;;;;;;15.43;5.65;;;;;;;5.22;73.49;99641.28;1715346;84;21031;-62
2023/03/15 06:57:03;;;;;;;14.50;5.90;;;;;;;5.28;73.33;99638.67;1681239;85;21103;-62
2023/03/15 06:59:32;;;;;;;15.18;6.33;;;;;;;5.34;73.14;99647.45;1681236;85;21039;-62
2023/03/15 07:02:01;;;;;;;19.17;6.92;;;;;;;5.43;72.95;99649.58;1715374;83;21022;-63
2023/03/15 07:04:30;;;;;;;22.48;7.10;;;;;;;5.52;72.53;99647.64;1680924;85;21051;-61
2023/03/15 07:07:00;;;;;;;14.87;6.35;;;;;;;5.58;72.34;99653.70;1715350;83;21023;-62
2023/03/15 07:09:29;;;;;;;16.52;6.55;;;;;;;5.62;71.93;99647.70;1680887;85;21138;-62
2023/03/15 07:11:57;;;;;;;11.35;6.03;;;;;;;5.66;71.87;99660.41;1715430;84;21078;-63
2023/03/15 07:14:26;;;;;;;13.05;6.60;;;;;;;5.68;71.63;99647.48;1681272;85;21069;-61
2023/03/15 07:16:55;;;;;;;14.63;6.10;;;;;;;5.72;71.57;99649.65;1715181;83;21102;-62
2023/03/15 07:19:25;;;;;;;14.43;7.33;;;;;;;5.76;71.40;99647.41;1680993;85;21537;-61
2023/03/15 07:21:55;;;;;;;24.65;7.45;;;;;;;5.77;71.28;99638.22;1681117;85;21051;-63
2023/03/15 07:24:24;;;;;;;30.65;7.50;;;;;;;5.77;71.25;99646.38;1715803;84;21055;-62
2023/03/15 07:26:56;;;;;;;29.77;8.55;;;;;;;5.80;71.28;99650.59;1681132;85;21097;-62
2023/03/15 07:29:28;;;;;;;21.30;7.10;;;;;;;5.87;71.33;99647.50;1716085;83;21492;-62
2023/03/15 07:31:59;;;;;;;14.73;6.70;;;;;;;5.92;71.17;99646.45;1684178;85;21078;-62
2023/03/15 07:34:27;;;;;;;19.52;6.80;;;;;;;5.98;71.12;99650.63;1740906;81;21071;-61
2023/03/15 07:36:56;;;;;;;19.65;7.78;;;;;;;6.04;71.04;99653.12;1756402;82;21056;-61
2023/03/15 07:39:25;;;;;;;19.70;7.30;;;;;;;6.09;70.90;99649.84;1756219;82;21017;-63
2023/03/15 07:41:55;;;;;;;20.23;7.15;;;;;;;6.12;70.68;99653.03;1754271;82;21084;-62
2023/03/15 07:44:28;;;;;;;22.60;7.17;;;;;;;6.14;70.63;99643.32;1752709;82;21095;-63
2023/03/15 07:46:57;;;;;;;17.85;7.10;;;;;;;6.21;70.69;99641.53;1753467;82;21080;-63
2023/03/15 07:49:26;;;;;;;16.67;6.95;;;;;;;6.29;70.58;99645.52;1753543;82;21008;-63
2023/03/15 07:51:55;;;;;;;17.32;7.00;;;;;;;6.35;70.32;99637.96;1753800;82;21056;-63
2023/03/15 07:54:28;;;;;;;15.55;7.25;;;;;;;6.42;70.10;99633.97;1753460;82;21107;-64
2023/03/15 07:56:57;;;;;;;24.20;7.85;;;;;;;6.48;70.06;99644.94;1753643;82;21056;-65
2023/03/15 07:59:26;;;;;;;16.75;6.42;;;;;;;6.55;69.96;99635.00;1753741;82;21052;-64
2023/03/15 08:01:55;;;;;;;27.95;14.13;;;;;;;6.63;69.72;99645.78;1753482;82;20996;-62
2023/03/15 08:04:26;;;;;;;31.77;9.20;;;;;;;6.73;69.58;99650.08;1753567;81;21075;-60
2023/03/15 08:06:57;;;;;;;22.27;7.12;;;;;;;6.88;69.41;99649.00;1753402;82;21044;-63
2023/03/15 08:09:27;;;;;;;12.88;6.35;;;;;;;7.18;69.12;99647.05;1753714;82;21060;-63
2023/03/15 08:11:56;;;;;;;16.77;6.30;;;;;;;7.56;67.96;99643.52;1753398;82;21056;-62
2023/03/15 08:14:25;;;;;;;23.90;6.70;;;;;;;7.90;66.71;99651.47;1753425;82;21024;-63
2023/03/15 08:16:54;;;;;;;10.95;6.05;;;;;;;8.38;66.03;99644.77;1753503;82;21079;-62
2023/03/15 08:19:44;;;;;;;17.12;5.97;;;;;;;8.89;65.12;99645.21;1753364;82;21032;-62
2023/03/15 08:22:15;;;;;;;17.37;6.42;;;;;;;9.41;62.48;99637.68;1757080;81;21061;-62
2023/03/15 08:24:44;;;;;;;15.68;7.03;;;;;;;9.85;60.13;99631.61;1721092;83;21095;-63
2023/03/15 08:27:15;;;;;;;21.75;8.15;;;;;;;10.19;59.35;99617.34;1757083;82;20990;-62
2023/03/15 08:29:44;;;;;;;22.85;6.70;;;;;;;10.58;58.29;99611.48;1757360;82;21082;-63
2023/03/15 08:32:17;;;;;;;18.70;6.75;;;;;;;10.92;56.91;99619.32;1757231;82;21470;-63
2023/03/15 08:34:47;;;;;;;15.80;5.83;;;;;;;11.27;55.94;99625.25;1757574;82;21108;-62
2023/03/15 08:37:18;;;;;;;15.90;6.58;;;;;;;11.53;54.10;99622.84;1757102;82;21014;-62
2023/03/15 08:39:47;;;;;;;17.37;6.65;;;;;;;11.66;53.42;99624.11;1720939;83;21071;-63
2023/03/15 08:42:16;;;;;;;15.98;6.47;;;;;;;11.81;52.80;99623.83;1757159;82;21046;-63
2023/03/15 08:44:47;;;;;;;19.17;6.65;;;;;;;11.99;52.63;99618.91;1664392;86;21070;-63
2023/03/15 08:47:16;;;;;;;13.43;6.15;;;;;;;12.13;51.49;99621.84;1664745;86;21058;-64
2023/03/15 08:49:45;;;;;;;21.05;7.00;;;;;;;12.15;51.40;99621.08;1664829;86;21058;-63
2023/03/15 08:52:14;;;;;;;15.08;6.35;;;;;;;12.21;51.05;99614.67;1664787;86;21101;-62
2023/03/15 08:54:48;;;;;;;15.28;5.65;;;;;;;12.20;50.76;99609.41;1664572;86;21613;-66
2023/03/15 08:57:18;;;;;;;16.32;5.87;;;;;;;12.13;50.43;99610.84;1665757;84;21213;-61
2023/03/15 08:59:50;;;;;;;18.45;6.70;;;;;;;11.97;51.30;99605.41;1665499;85;21153;-64
2023/03/15 09:02:21;;;;;;;12.80;7.03;;;;;;;11.89;51.06;99606.23;1620744;86;21045;-64
2023/03/15 09:04:52;;;;;;;11.25;5.40;;;;;;;11.71;51.72;99594.12;1726802;83;21026;-62
2023/03/15 09:07:31;;;;;;;13.80;5.60;;;;;;;11.58;52.17;99595.58;1691860;84;21708;-64
2023/03/15 09:10:15;;;;;;;13.53;5.30;;;;;;;11.49;52.37;99606.52;1726837;83;21101;-63
2023/03/15 09:12:52;;;;;;;18.73;6.33;;;;;;;11.41;52.74;99608.17;1726614;83;21066;-63
2023/03/15 09:15:24;;;;;;;13.43;6.28;;;;;;;11.32;52.92;99602.11;1749720;82;21466;-64
2023/03/15 09:18:01;;;;;;;17.60;5.90;;;;;;;11.23;53.20;99602.61;1757081;81;21472;-63
2023/03/15 09:20:35;;;;;;;17.02;6.08;;;;;;;11.17;53.67;99610.34;1756366;82;21065;-63
2023/03/15 09:23:06;;;;;;;8.43;5.08;;;;;;;11.02;53.58;99611.45;1748893;82;21051;-63
2023/03/15 09:25:38;;;;;;;13.60;6.47;;;;;;;10.87;54.33;99610.91;1746827;82;21655;-64
2023/03/15 09:28:08;;;;;;;18.17;7.08;;;;;;;10.74;54.38;99604.13;1746241;82;21074;-61
2023/03/15 09:30:38;;;;;;;16.95;6.67;;;;;;;10.60;55.20;99607.99;1746737;81;21487;-64
2023/03/15 09:33:08;;;;;;;30.05;8.03;;;;;;;10.56;55.54;99610.85;1762008;81;21455;-64
2023/03/15 09:35:37;;;;;;;15.00;7.55;;;;;;;10.44;55.87;99606.05;1762176;81;21511;-63
2023/03/15 09:38:06;;;;;;;19.57;6.87;;;;;;;10.33;56.30;99602.59;1762156;81;21007;-63
2023/03/15 09:40:40;;;;;;;19.70;7.33;;;;;;;10.22;56.76;99594.20;1761911;81;21023;-64
2023/03/15 09:43:24;;;;;;;21.15;7.40;;;;;;;10.18;57.50;99593.23;1762016;81;20992;-64
2023/03/15 09:46:17;;;;;;;12.68;6.92;;;;;;;10.12;57.44;99580.92;1761622;81;21451;-63
2023/03/15 09:49:10;;;;;;;13.43;6.75;;;;;;;10.04;57.91;99574.32;1761737;81;21058;-64
2023/03/15 09:51:53;;;;;;;23.98;7.83;;;;;;;10.04;58.20;99579.27;1762223;81;21501;-64
2023/03/15 09:54:40;;;;;;;18.70;7.55;;;;;;;10.01;58.61;99582.95;1746578;82;20999;-63
2023/03/15 09:57:20;;;;;;;13.20;6.45;;;;;;;10.02;59.06;99586.01;1699456;83;21455;-63
2023/03/15 09:59:52;;;;;;;15.50;6.95;;;;;;;10.02;59.37;99584.64;1683531;84;21075;-63
2023/03/15 10:02:29;;;;;;;16.65;7.30;;;;;;;10.05;59.49;99591.89;1687379;85;21091;-62
2023/03/15 10:05:09;;;;;;;13.80;6.78;;;;;;;10.11;59.32;99588.83;1689815;84;21058;-62
2023/03/15 10:07:40;;;;;;;16.17;8.70;;;;;;;10.10;59.28;99583.04;1687447;85;21538;-63
2023/03/15 10:10:22;;;;;;;17.50;7.40;;;;;;;10.07;59.22;99580.20;1744622;82;21050;-62
2023/03/15 10:12:57;;;;;;;13.88;7.17;;;;;;;10.01;59.32;99574.22;1662868;86;21109;-62
2023/03/15 10:15:46;;;;;;;17.85;7.15;;;;;;;9.97;59.72;99574.86;1662914;86;21031;-62
2023/03/15 10:18:30;;;;;;;32.13;8.30;;;;;;;9.95;59.52;99571.50;1628258;87;21154;-63
2023/03/15 10:21:07;;;;;;;43.48;9.98;;;;;;;9.91;60.01;99566.14;1629219;87;21059;-61
2023/03/15 10:23:52;;;;;;;18.23;6.92;;;;;;;9.94;60.18;99562.98;1590020;88;21178;-62
2023/03/15 10:26:26;;;;;;;23.90;7.15;;;;;;;9.95;59.94;99566.87;1660910;86;21109;-62
2023/03/15 10:28:54;;;;;;;15.50;7.28;;;;;;;9.95;59.96;99572.87;1662747;86;21086;-61
2023/03/15 10:31:26;;;;;;;15.43;6.83;;;;;;;9.95;59.89;99566.03;1663211;86;21022;-60
2023/03/15 10:34:00;;;;;;;16.37;7.22;;;;;;;9.95;59.90;99576.97;1628706;87;21123;-60
2023/03/15 10:36:29;;;;;;;20.82;6.28;;;;;;;9.94;59.93;99567.08;1634421;84;21191;-60
2023/03/15 10:38:58;;;;;;;13.78;6.47;;;;;;;9.94;60.02;99569.81;1687447;85;21107;-61
2023/03/15 10:41:42;;;;;;;11.68;6.55;;;;;;;9.98;60.25;99566.97;1710853;83;21055;-60
2023/03/15 10:44:20;;;;;;;21.75;7.03;;;;;;;9.99;60.11;99557.70;1746693;81;21079;-61
2023/03/15 10:47:08;;;;;;;14.65;6.33;;;;;;;10.01;60.22;99566.54;1746830;82;21065;-62
2023/03/15 10:49:47;;;;;;;19.50;8.58;;;;;;;10.04;60.38;99566.11;1744862;82;21027;-61
2023/03/15 10:52:37;;;;;;;19.32;8.20;;;;;;;10.06;60.24;99565.37;1746554;82;21106;-61
2023/03/15 10:55:20;;;;;;;23.32;8.45;;;;;;;10.09;60.19;99572.62;1747020;81;21054;-61
2023/03/15 10:57:55;;;;;;;16.02;7.33;;;;;;;10.11;60.10;99565.56;1747038;82;21595;-60
2023/03/15 11:00:33;;;;;;;13.58;6.40;;;;;;;10.14;60.00;99568.70;1747675;82;20983;-62
2023/03/15 11:03:18;;;;;;;15.78;6.35;;;;;;;10.19;59.70;99561.22;1695009;85;21047;-62
2023/03/15 11:05:52;;;;;;;13.83;6.70;;;;;;;10.24;59.50;99557.34;1682628;85;21054;-62
2023/03/15 11:08:37;;;;;;;12.63;6.53;;;;;;;10.25;59.19;99555.44;1665991;86;21773;-61
2023/03/15 11:11:07;;;;;;;18.17;7.15;;;;;;;10.22;59.11;99551.77;1661758;86;21094;-60
2023/03/15 11:13:39;;;;;;;17.10;7.12;;;;;;;10.24;59.04;99536.80;1663322;86;21134;-63
2023/03/15 11:16:19;;;;;;;19.75;7.70;;;;;;;10.26;58.83;99551.11;1663329;86;21101;-61
2023/03/15 11:18:57;;;;;;;19.12;7.87;;;;;;;10.26;59.00;99552.48;1663067;86;21046;-62
2023/03/15 11:21:33;;;;;;;13.98;6.30;;;;;;;10.32;58.91;99561.20;1694815;83;21109;-61
2023/03/15 11:24:04;;;;;;;22.50;6.33;;;;;;;10.33;58.44;99538.77;1720480;82;21050;-61
2023/03/15 11:26:38;;;;;;;15.13;5.75;;;;;;;10.30;58.06;99542.78;1720641;83;21049;-61
2023/03/15 11:29:23;;;;;;;12.65;6.95;;;;;;;10.31;58.10;99539.52;1626007;88;21123;-61
2023/03/15 11:31:52;;;;;;;29.42;7.78;;;;;;;10.32;58.26;99538.45;1625889;88;21509;-61
2023/03/15 11:34:39;;;;;;;17.27;6.47;;;;;;;10.34;58.21;99539.92;1626286;88;21108;-60
2023/03/15 11:37:41;;;;;;;29.67;8.40;;;;;;;10.36;58.19;99544.65;1624479;88;21046;-61
2023/03/15 11:40:26;;;;;;;13.93;6.40;;;;;;;10.40;58.36;99540.95;1626249;88;21514;-60
2023/03/15 11:43:10;;;;;;;20.30;7.30;;;;;;;10.52;58.32;99542.50;1626540;88;21153;-60
2023/03/15 11:46:02;;;;;;;15.03;7.08;;;;;;;10.60;58.34;99547.73;1625791;88;21090;-61
2023/03/15 11:48:53;;;;;;;16.77;6.28;;;;;;;10.69;57.81;99553.27;1623968;88;21050;-60
2023/03/15 11:51:22;;;;;;;13.45;7.08;;;;;;;10.69;57.32;99545.05;1625818;88;21077;-60
2023/03/15 11:54:16;;;;;;;18.15;8.23;;;;;;;10.67;57.38;99550.73;1676917;83;21034;-60
2023/03/15 11:56:57;;;;;;;19.30;7.37;;;;;;;10.66;57.41;99549.59;1730082;82;21483;-59
2023/03/15 11:59:31;;;;;;;15.48;7.35;;;;;;;10.60;57.00;99542.25;1685147;84;21041;-62
2023/03/15 12:02:12;;;;;;;18.40;6.95;;;;;;;10.50;57.75;99549.56;1684790;84;21076;-60
2023/03/15 12:04:49;;;;;;;13.03;6.53;;;;;;;10.47;58.24;99545.89;1686188;84;21127;-61
2023/03/15 12:07:23;;;;;;;18.10;8.13;;;;;;;10.47;58.87;99548.11;1629679;87;21113;-61
2023/03/15 12:10:06;;;;;;;16.57;7.70;;;;;;;10.47;59.40;99544.53;1710086;84;21495;-61